createdAt,value
2022-11-25T00:02:49.779Z,2.70
2022-11-25T00:07:51.723Z,3.40
2022-11-25T00:12:53.386Z,3.00
2022-11-25T00:18:01.753Z,3.50
2022-11-25T00:23:07.386Z,4.20
2022-11-25T00:28:27.608Z,3.40
2022-11-25T00:33:38.489Z,4.45
2022-11-25T00:38:43.067Z,3.40
2022-11-25T00:43:50.412Z,3.90
2022-11-25T00:48:56.064Z,2.97
2022-11-25T00:53:59.148Z,3.17
2022-11-25T00:59:00.778Z,3.80
2022-11-25T01:04:02.916Z,3.00
2022-11-25T01:09:06.353Z,3.50
2022-11-25T01:14:11.313Z,4.75
2022-11-25T01:19:16.143Z,3.47
2022-11-25T01:24:21.112Z,3.42
2022-11-25T01:29:23.194Z,4.30
2022-11-25T01:34:27.386Z,4.32
2022-11-25T01:44:39.641Z,3.90
2022-11-25T01:55:01.132Z,3.00
2022-11-25T02:00:08.914Z,3.47
2022-11-25T02:05:17.613Z,3.95
2022-11-25T02:10:26.432Z,3.72
2022-11-25T02:15:31.070Z,3.45
2022-11-25T02:25:53.503Z,3.60
2022-11-25T02:30:56.865Z,4.55
2022-11-25T02:36:15.731Z,4.10
2022-11-25T02:41:52.004Z,3.65
2022-11-25T02:47:03.216Z,3.45
2022-11-25T02:57:06.316Z,3.80
2022-11-25T03:02:07.670Z,3.13
2022-11-25T03:07:09.144Z,2.78
2022-11-25T03:12:10.573Z,3.20
2022-11-25T03:17:12.041Z,3.15
2022-11-25T03:22:13.496Z,3.78
2022-11-25T03:27:14.955Z,3.97
2022-11-25T03:32:16.583Z,3.13
2022-11-25T03:37:19.191Z,3.65
2022-11-25T03:42:20.629Z,4.45
2022-11-25T03:47:22.268Z,4.18
2022-11-25T03:57:25.601Z,3.78
2022-11-25T04:02:27.137Z,4.97
2022-11-25T04:07:57.720Z,4.22
2022-11-25T04:12:59.576Z,4.03
2022-11-25T04:18:01.007Z,3.88
2022-11-25T04:23:02.356Z,4.18
2022-11-25T04:33:06.281Z,3.60
2022-11-25T04:38:07.723Z,3.38
2022-11-25T04:43:10.707Z,3.80
2022-11-25T04:48:12.255Z,4.10
2022-11-25T04:58:15.702Z,3.25
2022-11-25T05:03:17.028Z,3.60
2022-11-25T05:08:18.410Z,3.63
2022-11-25T05:13:19.822Z,3.53
2022-11-25T05:18:21.187Z,3.78
2022-11-25T05:23:22.549Z,4.13
2022-11-25T05:28:25.413Z,4.05
2022-11-25T05:33:27.352Z,4.03
2022-11-25T05:38:29.418Z,4.10
2022-11-25T05:43:31.331Z,3.80
2022-11-25T05:48:32.791Z,3.50
2022-11-25T05:53:34.147Z,4.22
2022-11-25T05:58:35.524Z,3.70
2022-11-25T06:03:37.502Z,3.97
2022-11-25T06:08:40.136Z,3.60
2022-11-25T06:13:42.875Z,5.18
2022-11-25T06:18:44.403Z,4.20
2022-11-25T06:23:54.837Z,4.15
2022-11-25T06:28:56.849Z,5.00
2022-11-25T06:33:58.201Z,3.90
2022-11-25T06:38:59.541Z,4.40
2022-11-25T06:44:00.923Z,4.63
2022-11-25T06:49:02.321Z,4.38
2022-11-25T06:54:03.941Z,4.55
2022-11-25T06:59:05.301Z,4.18
2022-11-25T07:04:06.765Z,4.47
2022-11-25T07:09:08.614Z,4.68
2022-11-25T07:14:12.613Z,3.88
2022-11-25T07:19:16.043Z,5.10
2022-11-25T07:24:18.365Z,4.38
2022-11-25T07:34:41.245Z,4.03
2022-11-25T07:39:42.582Z,4.50
2022-11-25T07:44:43.910Z,4.18
2022-11-25T07:49:45.411Z,4.10
2022-11-25T07:54:46.744Z,3.28
2022-11-25T07:59:48.089Z,4.50
2022-11-25T08:04:49.467Z,3.65
2022-11-25T08:14:52.257Z,4.78
2022-11-25T08:24:55.102Z,4.85
2022-11-25T08:29:56.505Z,4.53
2022-11-25T08:34:57.906Z,4.85
2022-11-25T08:40:00.066Z,5.50
2022-11-25T08:45:01.889Z,5.28
2022-11-25T08:50:07.539Z,5.07
2022-11-25T09:00:11.472Z,4.80
2022-11-25T09:05:15.600Z,4.15
2022-11-25T09:10:17.184Z,4.22
2022-11-25T09:15:18.502Z,5.90
2022-11-25T09:20:19.896Z,4.50
2022-11-25T09:25:22.602Z,4.75
2022-11-25T09:30:25.097Z,4.57
2022-11-25T09:35:27.498Z,5.20
2022-11-25T09:40:40.287Z,4.63
2022-11-25T09:46:13.491Z,4.88
2022-11-25T09:51:34.994Z,5.82
2022-11-25T10:02:02.043Z,4.78
2022-11-25T10:07:04.341Z,4.75
2022-11-25T10:12:13.498Z,4.68
2022-11-25T10:17:30.929Z,4.57
2022-11-25T10:22:34.847Z,4.53
2022-11-25T10:37:57.440Z,2.60
2022-11-25T10:43:02.003Z,2.33
2022-11-25T10:48:18.153Z,3.10
2022-11-25T10:53:27.373Z,2.38
2022-11-25T11:08:41.336Z,2.97
2022-11-25T11:13:43.855Z,2.75
2022-11-25T11:18:45.264Z,2.38
2022-11-25T11:23:50.466Z,2.85
2022-11-25T11:29:14.489Z,2.00
2022-11-25T11:34:24.682Z,2.25
2022-11-25T11:45:19.941Z,2.58
2022-11-25T11:50:31.737Z,3.42
2022-11-25T11:55:42.230Z,3.13
2022-11-25T12:01:37.261Z,3.97
2022-11-25T12:07:21.021Z,3.58
2022-11-25T12:24:30.037Z,2.97
2022-11-25T12:36:53.859Z,3.63
2022-11-25T12:47:40.668Z,3.15
2022-11-25T12:59:05.768Z,3.53
2022-11-25T13:04:42.146Z,3.00
2022-11-25T13:15:53.705Z,2.50
2022-11-25T13:42:44.659Z,3.15
2022-11-25T13:47:49.016Z,3.05
2022-11-25T13:58:21.093Z,2.65
2022-11-25T14:03:22.520Z,2.67
2022-11-25T14:08:45.826Z,2.38
2022-11-25T14:14:22.849Z,2.33
2022-11-25T14:19:55.628Z,2.63
2022-11-25T14:25:42.918Z,2.53
2022-11-25T14:30:53.630Z,3.00
2022-11-25T14:41:18.763Z,2.97
2022-11-25T14:46:26.565Z,3.47
2022-11-25T14:51:36.369Z,3.65
2022-11-25T15:01:56.904Z,2.95
2022-11-25T15:12:10.825Z,2.30
2022-11-25T15:17:29.043Z,3.05
2022-11-25T15:22:31.713Z,3.00
2022-11-25T15:27:48.803Z,3.38
2022-11-25T15:38:19.067Z,3.40
2022-11-25T15:43:29.956Z,3.75
2022-11-25T15:48:41.202Z,3.03
2022-11-25T15:53:54.104Z,3.35
2022-11-25T15:59:06.714Z,3.00
2022-11-25T16:04:46.598Z,2.90
2022-11-25T16:09:51.017Z,2.83
2022-11-25T16:15:04.648Z,3.00
2022-11-25T16:25:58.467Z,3.35
2022-11-25T16:31:11.101Z,3.03
2022-11-25T16:36:17.147Z,3.00
2022-11-25T16:41:25.761Z,3.13
2022-11-25T16:46:31.945Z,2.97
2022-11-25T16:57:27.285Z,3.33
2022-11-25T17:02:41.339Z,3.65
2022-11-25T17:07:43.210Z,2.95
2022-11-25T17:12:48.977Z,3.35
2022-11-25T17:17:54.575Z,2.50
2022-11-25T17:33:24.942Z,2.67
2022-11-25T17:43:33.170Z,3.05
2022-11-25T17:48:42.335Z,3.05
2022-11-25T17:53:47.307Z,2.50
2022-11-25T17:58:52.473Z,2.90
2022-11-25T18:09:10.825Z,2.63
2022-11-25T18:25:15.106Z,2.63
2022-11-25T18:36:19.654Z,3.67
2022-11-25T18:41:53.564Z,3.65
2022-11-25T18:52:08.669Z,4.25
2022-11-25T18:57:19.717Z,4.68
2022-11-25T19:12:53.883Z,4.22
2022-11-25T19:18:08.507Z,3.53
2022-11-25T19:23:47.553Z,4.70
2022-11-25T19:28:54.670Z,4.38
2022-11-25T19:33:56.090Z,6.10
2022-11-25T19:49:02.825Z,5.28
2022-11-25T20:04:13.283Z,5.97
2022-11-25T20:24:20.446Z,6.75
2022-11-25T20:29:27.364Z,6.00
2022-11-25T20:34:31.545Z,5.68
2022-11-25T20:39:33.202Z,6.18
2022-11-25T20:44:35.556Z,7.32
2022-11-25T20:49:37.136Z,7.07
2022-11-25T20:54:38.695Z,6.65
2022-11-25T20:59:40.483Z,6.55
2022-11-25T21:04:41.933Z,6.72
2022-11-25T21:09:43.630Z,5.95
2022-11-25T21:14:45.011Z,6.78
2022-11-25T21:19:46.413Z,6.45
2022-11-25T21:29:49.468Z,6.38
2022-11-25T21:34:51.816Z,7.13
2022-11-25T21:39:53.406Z,7.20
2022-11-25T21:44:55.159Z,6.75
2022-11-25T21:49:57.811Z,7.85
2022-11-25T21:54:59.179Z,7.38
2022-11-25T22:00:03.010Z,7.43
2022-11-25T22:05:13.201Z,5.60
2022-11-25T22:20:28.022Z,7.25
2022-11-25T22:25:32.515Z,7.20
2022-11-25T22:30:34.038Z,7.22
2022-11-25T22:35:35.460Z,7.55
2022-11-25T22:40:36.801Z,6.20
2022-11-25T22:45:38.255Z,6.80
2022-11-25T22:50:40.124Z,7.53
2022-11-25T22:55:41.513Z,7.53
2022-11-25T23:00:45.955Z,7.28
2022-11-25T23:05:50.008Z,8.02
2022-11-25T23:10:52.707Z,8.73
2022-11-25T23:15:56.914Z,7.28
2022-11-25T23:20:58.290Z,7.93
2022-11-25T23:25:59.705Z,6.88
2022-11-25T23:31:01.633Z,7.70
2022-11-25T23:36:09.093Z,7.82
2022-11-25T23:41:18.773Z,8.90
2022-11-25T23:46:24.348Z,7.10
2022-11-25T23:51:27.495Z,6.63
2022-11-25T23:56:28.919Z,6.47
